Time;durP1;ratioP1;P1;durP2;ratioP2;P2;SDS_P1;SDS_P2;PMS_P1;PMS_P2;Temp;Humidity;BMP_temperature;BMP_pressure;BME280_temperature;BME280_humidity;BME280_pressure;Samples;Min_cycle;Max_cycle;Signal;HPM_P1;HPM_P2
2021/10/13 00:02:15;;;;;;;6.65;3.33;;;5.50;99.90;;;;;;4980285;28;20033;-83
2021/10/13 00:04:40;;;;;;;8.50;5.30;;;5.40;99.90;;;;;;4988238;28;20038;-83
2021/10/13 00:07:06;;;;;;;10.32;4.55;;;5.40;99.90;;;;;;4999825;28;20512;-83
2021/10/13 00:09:32;;;;;;;8.07;3.85;;;5.40;99.90;;;;;;4995232;28;20035;-83
2021/10/13 00:11:57;;;;;;;11.95;4.93;;;5.50;99.90;;;;;;4997906;28;20035;-83
2021/10/13 00:14:23;;;;;;;9.35;3.72;;;5.50;99.90;;;;;;4971761;28;20468;-83
2021/10/13 00:16:53;;;;;;;13.45;5.60;;;5.60;99.90;;;;;;4955612;28;20410;-83
2021/10/13 00:19:20;;;;;;;11.35;6.13;;;5.60;99.90;;;;;;4984288;28;20371;-83
2021/10/13 00:21:45;;;;;;;8.40;4.25;;;5.30;99.90;;;;;;4968850;28;20571;-83
2021/10/13 00:24:12;;;;;;;8.13;4.38;;;5.20;99.90;;;;;;5000981;28;20169;-83
2021/10/13 00:26:37;;;;;;;19.80;8.20;;;5.40;99.90;;;;;;4983294;28;20088;-83
2021/10/13 00:29:03;;;;;;;13.75;6.85;;;5.40;99.90;;;;;;5020145;28;20116;-83
2021/10/13 00:31:28;;;;;;;14.10;7.70;;;5.30;99.90;;;;;;4986423;28;20498;-83
2021/10/13 00:33:54;;;;;;;11.38;5.95;;;5.00;99.90;;;;;;4977431;28;20038;-83
2021/10/13 00:36:19;;;;;;;11.10;6.00;;;5.00;99.90;;;;;;4995219;28;20114;-83
2021/10/13 00:38:45;;;;;;;13.15;5.22;;;5.00;99.90;;;;;;4989866;28;20107;-83
2021/10/13 00:41:10;;;;;;;9.05;4.05;;;5.20;99.90;;;;;;4953454;28;20027;-83
2021/10/13 00:43:36;;;;;;;10.13;6.50;;;5.40;99.90;;;;;;5002880;28;20457;-83
2021/10/13 00:46:02;;;;;;;14.85;7.28;;;5.30;99.90;;;;;;4980634;28;20554;-83
2021/10/13 00:48:27;;;;;;;10.20;5.30;;;5.30;99.90;;;;;;4980532;28;21111;-83
2021/10/13 00:50:53;;;;;;;12.30;6.35;;;5.30;99.90;;;;;;4956901;28;20034;-83
2021/10/13 00:53:19;;;;;;;11.43;6.22;;;5.30;99.90;;;;;;5001903;28;20129;-83
2021/10/13 00:55:44;;;;;;;13.05;7.05;;;5.30;99.90;;;;;;4993164;28;20052;-83
2021/10/13 00:58:10;;;;;;;10.20;5.80;;;5.20;99.90;;;;;;4989168;28;20026;-83
2021/10/13 01:00:35;;;;;;;15.60;8.63;;;5.30;99.90;;;;;;4989718;28;20402;-83
2021/10/13 01:03:26;;;;;;;13.55;7.95;;;5.30;99.90;;;;;;5007055;28;20036;-83
2021/10/13 01:06:08;;;;;;;15.90;9.23;;;5.10;99.90;;;;;;4962054;28;20054;-83
2021/10/13 01:09:00;;;;;;;26.23;8.80;;;4.90;99.90;;;;;;4971956;28;20035;-82
2021/10/13 01:11:52;;;;;;;16.70;9.13;;;5.00;99.90;;;;;;5022609;28;20109;-83
2021/10/13 01:14:56;;;;;;;16.25;8.43;;;4.80;99.90;;;;;;4972793;28;20542;-83
2021/10/13 01:17:36;;;;;;;19.08;9.13;;;4.80;99.90;;;;;;4998000;28;20041;-83
2021/10/13 01:20:19;;;;;;;13.63;7.68;;;4.80;99.90;;;;;;5001494;28;20108;-83
2021/10/13 01:23:24;;;;;;;18.70;7.65;;;4.70;99.90;;;;;;5009667;28;20371;-83
2021/10/13 01:26:05;;;;;;;23.67;10.35;;;4.90;99.90;;;;;;5017251;28;20033;-83
2021/10/13 01:28:34;;;;;;;17.38;7.63;;;5.00;99.90;;;;;;5021503;28;20061;-83
2021/10/13 01:31:20;;;;;;;20.92;8.48;;;4.90;99.90;;;;;;4970742;28;20416;-83
2021/10/13 01:33:57;;;;;;;12.77;7.22;;;4.90;99.90;;;;;;5000463;28;20033;-83
2021/10/13 01:36:25;;;;;;;8.90;5.72;;;4.80;99.90;;;;;;5006780;28;20479;-84
2021/10/13 01:38:51;;;;;;;13.05;7.82;;;4.70;99.90;;;;;;4987159;28;20030;-84
2021/10/13 01:41:17;;;;;;;12.90;7.75;;;4.60;99.90;;;;;;5002378;28;20609;-83
2021/10/13 01:43:44;;;;;;;17.95;8.80;;;4.60;99.90;;;;;;5006860;28;20062;-83
2021/10/13 01:46:09;;;;;;;8.88;6.03;;;4.60;99.90;;;;;;5003879;28;20042;-83
2021/10/13 01:48:35;;;;;;;16.00;6.90;;;4.50;99.90;;;;;;4991207;28;20034;-83
2021/10/13 01:51:01;;;;;;;14.65;8.23;;;4.70;99.90;;;;;;5003165;28;20038;-83
2021/10/13 01:53:26;;;;;;;13.88;6.40;;;4.60;99.90;;;;;;4978704;28;20132;-83
2021/10/13 01:55:52;;;;;;;13.63;7.15;;;4.60;99.90;;;;;;4984246;28;20071;-83
2021/10/13 01:58:17;;;;;;;23.38;8.90;;;4.50;99.90;;;;;;4984044;28;20034;-84
2021/10/13 02:00:45;;;;;;;11.00;6.47;;;4.50;99.90;;;;;;4973371;28;20030;-84
2021/10/13 02:03:10;;;;;;;17.13;7.55;;;4.60;99.90;;;;;;4998397;28;20036;-83
2021/10/13 02:05:37;;;;;;;14.93;8.75;;;4.60;99.90;;;;;;4972541;28;20402;-84
2021/10/13 02:08:03;;;;;;;17.40;7.95;;;4.60;99.90;;;;;;4967672;28;20026;-84
2021/10/13 02:10:28;;;;;;;10.38;6.75;;;4.40;99.90;;;;;;4995184;28;20390;-84
2021/10/13 02:12:55;;;;;;;16.98;8.95;;;4.40;99.90;;;;;;4986586;28;20389;-84
2021/10/13 02:15:21;;;;;;;16.88;8.35;;;4.30;99.90;;;;;;5002007;28;20026;-84
2021/10/13 02:17:47;;;;;;;14.40;8.52;;;4.40;99.90;;;;;;4990666;28;20034;-84
2021/10/13 02:20:13;;;;;;;20.63;8.93;;;4.30;99.90;;;;;;5004171;28;20061;-84
2021/10/13 02:22:40;;;;;;;16.83;9.13;;;4.10;99.90;;;;;;4992102;28;20061;-84
2021/10/13 02:25:05;;;;;;;20.08;10.57;;;4.10;99.90;;;;;;4988091;28;20038;-84
2021/10/13 02:27:43;;;;;;;19.75;8.90;;;4.10;99.90;;;;;;4966398;28;20506;-84
2021/10/13 02:30:09;;;;;;;18.42;8.13;;;4.10;99.90;;;;;;4973395;28;20026;-84
2021/10/13 02:32:34;;;;;;;14.25;9.02;;;4.10;99.90;;;;;;5003771;28;20034;-85
2021/10/13 02:35:00;;;;;;;13.85;6.68;;;4.30;99.90;;;;;;4987484;28;20077;-84
2021/10/13 02:37:25;;;;;;;10.38;5.15;;;4.50;99.90;;;;;;5015606;28;20026;-84
2021/10/13 02:39:51;;;;;;;9.45;4.97;;;4.60;99.90;;;;;;4954119;28;20062;-84
2021/10/13 02:42:17;;;;;;;9.98;5.80;;;4.60;99.90;;;;;;4974744;28;20061;-84
2021/10/13 02:44:42;;;;;;;11.35;6.38;;;4.50;99.90;;;;;;4969735;28;20061;-84
2021/10/13 02:47:38;;;;;;;6.95;5.30;;;4.40;99.90;;;;;;4984812;28;20084;-84
2021/10/13 02:50:19;;;;;;;11.73;5.63;;;4.50;99.90;;;;;;4978458;28;20416;-83
2021/10/13 02:52:50;;;;;;;14.57;5.95;;;4.50;99.90;;;;;;5005776;28;20018;-83
2021/10/13 02:55:22;;;;;;;18.05;7.10;;;4.50;99.90;;;;;;5006382;28;20129;-84
2021/10/13 02:58:27;;;;;;;14.77;6.63;;;4.60;99.90;;;;;;4989578;28;20045;-83
2021/10/13 03:00:52;;;;;;;9.40;5.45;;;4.50;99.90;;;;;;5002215;28;20080;-83
2021/10/13 03:03:20;;;;;;;9.43;6.15;;;4.60;99.90;;;;;;5003201;28;20513;-83
2021/10/13 03:05:47;;;;;;;12.80;7.13;;;4.60;99.90;;;;;;5003559;28;20034;-83
2021/10/13 03:08:14;;;;;;;9.75;6.20;;;4.50;99.90;;;;;;4988537;28;20069;-84
2021/10/13 03:10:40;;;;;;;10.40;6.25;;;4.40;99.90;;;;;;4988499;28;20030;-83
2021/10/13 03:13:06;;;;;;;14.18;7.22;;;4.30;99.90;;;;;;5002833;28;20049;-83
2021/10/13 03:15:31;;;;;;;12.80;6.93;;;4.40;99.90;;;;;;5002991;28;20148;-84
2021/10/13 03:17:58;;;;;;;8.90;5.53;;;4.20;99.90;;;;;;4974325;28;20490;-83
2021/10/13 03:20:23;;;;;;;20.60;7.75;;;4.20;99.90;;;;;;5002847;28;20030;-83
2021/10/13 03:22:49;;;;;;;21.08;7.75;;;4.30;99.90;;;;;;4974304;28;20056;-84
2021/10/13 03:25:33;;;;;;;29.85;7.90;;;4.30;99.90;;;;;;4988466;28;20385;-84
2021/10/13 03:27:59;;;;;;;75.88;10.23;;;4.20;99.90;;;;;;4989533;28;20555;-84
2021/10/13 03:30:25;;;;;;;61.30;10.30;;;4.20;99.90;;;;;;5000023;28;20030;-83
2021/10/13 03:32:50;;;;;;;89.40;11.27;;;4.10;99.90;;;;;;4987228;28;20524;-83
2021/10/13 03:35:28;;;;;;;75.10;10.68;;;4.00;99.90;;;;;;4987558;28;20053;-83
2021/10/13 03:37:55;;;;;;;60.30;11.48;;;4.00;99.90;;;;;;5003892;28;20053;-83
2021/10/13 03:40:20;;;;;;;23.38;7.82;;;3.90;99.90;;;;;;5001689;28;20478;-84
2021/10/13 03:42:46;;;;;;;11.70;7.82;;;3.80;99.90;;;;;;4989666;28;20037;-84
2021/10/13 03:45:13;;;;;;;20.52;10.57;;;4.00;99.90;;;;;;5003365;28;20029;-83
2021/10/13 03:47:39;;;;;;;14.27;8.35;;;4.00;99.90;;;;;;5001777;28;20855;-84
2021/10/13 03:50:05;;;;;;;22.10;9.98;;;4.00;99.90;;;;;;5003557;28;20037;-84
2021/10/13 03:52:30;;;;;;;16.05;9.85;;;3.90;99.90;;;;;;4983712;28;20038;-84
2021/10/13 03:54:56;;;;;;;14.05;8.77;;;3.90;99.90;;;;;;4985542;28;20033;-83
2021/10/13 03:57:21;;;;;;;15.00;8.70;;;3.90;99.90;;;;;;5000586;28;20393;-84
2021/10/13 03:59:47;;;;;;;16.95;9.35;;;4.10;99.90;;;;;;4989652;28;20101;-84
2021/10/13 04:02:12;;;;;;;13.73;8.68;;;4.10;99.90;;;;;;4988647;28;20436;-84
2021/10/13 04:04:38;;;;;;;24.92;9.05;;;4.10;99.90;;;;;;4987456;28;20183;-84
2021/10/13 04:07:03;;;;;;;37.97;9.57;;;4.10;99.90;;;;;;5002432;28;20034;-84
2021/10/13 04:09:29;;;;;;;19.98;6.85;;;4.20;99.90;;;;;;4986336;28;20079;-84
2021/10/13 04:11:54;;;;;;;43.40;8.40;;;4.20;99.90;;;;;;4972721;28;20080;-84
2021/10/13 04:14:20;;;;;;;9.32;5.68;;;4.20;99.90;;;;;;5005281;28;20132;-84
2021/10/13 04:16:46;;;;;;;38.53;9.60;;;4.10;99.90;;;;;;4980916;28;20124;-84
2021/10/13 04:19:11;;;;;;;16.30;9.35;;;4.20;99.90;;;;;;4977972;28;20049;-83
2021/10/13 04:21:37;;;;;;;15.70;8.70;;;4.10;99.90;;;;;;4984228;28;20031;-83
2021/10/13 04:24:02;;;;;;;17.33;8.85;;;4.20;99.90;;;;;;4971801;28;20486;-83
2021/10/13 04:26:28;;;;;;;114.05;13.25;;;4.10;99.90;;;;;;4986259;28;20041;-85
2021/10/13 04:28:53;;;;;;;20.35;9.63;;;4.10;99.90;;;;;;4971109;28;20044;-84
2021/10/13 04:31:19;;;;;;;12.35;6.95;;;4.10;99.90;;;;;;4975678;28;20026;-84
2021/10/13 04:33:44;;;;;;;50.15;10.93;;;4.10;99.90;;;;;;4980752;28;20033;-83
2021/10/13 04:36:10;;;;;;;18.92;10.40;;;4.10;99.90;;;;;;4966144;28;20034;-83
2021/10/13 04:38:36;;;;;;;22.65;11.38;;;4.20;99.90;;;;;;5000555;28;20513;-84
2021/10/13 04:41:01;;;;;;;25.23;12.00;;;4.20;99.90;;;;;;5001603;28;20037;-84
2021/10/13 04:43:27;;;;;;;18.33;9.85;;;4.30;99.90;;;;;;4991793;28;20023;-84
2021/10/13 04:45:52;;;;;;;19.60;9.27;;;4.30;99.90;;;;;;4983745;28;20041;-84
2021/10/13 04:48:18;;;;;;;22.55;11.57;;;4.40;99.90;;;;;;4971089;28;20324;-84
2021/10/13 04:50:43;;;;;;;28.05;11.77;;;4.50;99.90;;;;;;4943651;28;20062;-84
2021/10/13 04:53:09;;;;;;;45.83;12.75;;;4.40;99.90;;;;;;4980005;28;20419;-84
2021/10/13 04:55:35;;;;;;;23.75;10.68;;;4.40;99.90;;;;;;5019039;28;20033;-84
2021/10/13 04:58:00;;;;;;;31.15;12.23;;;4.50;99.90;;;;;;5009120;28;20474;-83
2021/10/13 05:00:26;;;;;;;16.90;9.68;;;4.60;99.90;;;;;;4982832;28;20030;-84
2021/10/13 05:02:51;;;;;;;22.83;11.35;;;4.60;99.90;;;;;;4984457;28;20044;-85
2021/10/13 05:05:17;;;;;;;17.73;9.57;;;4.50;99.90;;;;;;5001879;28;20077;-83
2021/10/13 05:07:43;;;;;;;22.67;10.35;;;4.70;99.90;;;;;;4985264;28;20038;-85
2021/10/13 05:10:09;;;;;;;17.42;10.15;;;4.60;99.90;;;;;;5001099;28;20037;-84
2021/10/13 05:12:34;;;;;;;19.88;11.02;;;4.60;99.90;;;;;;4972176;28;20034;-84
2021/10/13 05:15:00;;;;;;;16.05;10.38;;;4.60;99.90;;;;;;4981137;28;20487;-84
2021/10/13 05:17:25;;;;;;;14.07;8.55;;;4.70;99.90;;;;;;4993829;28;20049;-84
2021/10/13 05:19:51;;;;;;;28.38;12.77;;;4.70;99.90;;;;;;4976164;28;20418;-84
2021/10/13 05:22:16;;;;;;;16.98;9.05;;;4.80;99.90;;;;;;5009579;28;20033;-84
2021/10/13 05:24:42;;;;;;;36.35;11.15;;;4.70;99.90;;;;;;5006414;28;20542;-84
2021/10/13 05:27:07;;;;;;;15.80;9.32;;;4.70;99.90;;;;;;4974888;28;20034;-84
2021/10/13 05:29:33;;;;;;;15.60;8.27;;;4.70;99.90;;;;;;4989691;28;20026;-84
2021/10/13 05:31:58;;;;;;;16.80;9.75;;;4.80;99.90;;;;;;4990275;28;20025;-84
2021/10/13 05:34:24;;;;;;;10.10;7.38;;;4.80;99.90;;;;;;5005775;28;20374;-84
2021/10/13 05:36:49;;;;;;;24.63;10.60;;;4.80;99.90;;;;;;4974666;28;20044;-84
2021/10/13 05:39:15;;;;;;;13.30;9.02;;;4.80;99.90;;;;;;4976760;28;20117;-84
2021/10/13 05:41:40;;;;;;;20.48;11.40;;;4.80;99.90;;;;;;4981654;28;20121;-84
2021/10/13 05:44:06;;;;;;;19.30;10.05;;;4.70;99.90;;;;;;4987501;28;20121;-84
2021/10/13 05:46:32;;;;;;;12.77;7.82;;;4.70;99.90;;;;;;4989842;28;20514;-83
2021/10/13 05:48:57;;;;;;;13.40;7.28;;;4.70;99.90;;;;;;4990190;28;20018;-84
2021/10/13 05:51:23;;;;;;;14.80;8.73;;;4.80;99.90;;;;;;5001972;28;20103;-84
2021/10/13 05:53:48;;;;;;;20.48;10.07;;;4.80;99.90;;;;;;4972080;28;20030;-83
2021/10/13 05:56:14;;;;;;;22.38;11.50;;;4.70;99.90;;;;;;4969944;28;20590;-84
2021/10/13 05:58:39;;;;;;;23.48;13.73;;;4.60;99.90;;;;;;5000255;28;20034;-84
2021/10/13 06:01:05;;;;;;;15.55;9.48;;;4.50;99.90;;;;;;5002761;28;20036;-84
2021/10/13 06:03:30;;;;;;;19.58;10.45;;;4.60;99.90;;;;;;4990717;28;20030;-84
2021/10/13 06:05:56;;;;;;;17.70;10.63;;;4.60;99.90;;;;;;4967910;28;20034;-83
2021/10/13 06:08:22;;;;;;;21.92;11.13;;;4.60;99.90;;;;;;4991373;28;20026;-84
2021/10/13 06:10:47;;;;;;;15.52;9.00;;;4.80;99.90;;;;;;4988836;28;20117;-84
2021/10/13 06:13:13;;;;;;;19.38;10.38;;;4.80;99.90;;;;;;5009585;28;20109;-84
2021/10/13 06:15:38;;;;;;;15.25;8.25;;;4.80;99.90;;;;;;5003510;28;20268;-84
2021/10/13 06:18:05;;;;;;;14.45;8.80;;;4.90;99.90;;;;;;4967738;28;20486;-84
2021/10/13 06:20:31;;;;;;;15.13;9.70;;;4.90;99.90;;;;;;4983940;28;20100;-84
2021/10/13 06:22:57;;;;;;;20.80;11.10;;;5.00;99.90;;;;;;4968002;28;20980;-84
2021/10/13 06:25:22;;;;;;;13.73;8.10;;;4.90;99.90;;;;;;4970018;28;20062;-84
2021/10/13 06:27:48;;;;;;;23.35;12.57;;;5.00;99.90;;;;;;4954464;28;20062;-84
2021/10/13 06:30:14;;;;;;;21.77;12.20;;;5.00;99.90;;;;;;4971670;28;20030;-84
2021/10/13 06:32:40;;;;;;;18.58;11.52;;;5.00;99.90;;;;;;4984630;28;20034;-83
2021/10/13 06:35:06;;;;;;;23.55;13.13;;;5.00;99.90;;;;;;4981495;28;20029;-84
2021/10/13 06:37:32;;;;;;;29.05;14.00;;;5.10;99.90;;;;;;4957350;28;20038;-83
2021/10/13 06:39:58;;;;;;;14.15;8.85;;;5.20;99.90;;;;;;4986542;28;20081;-84
2021/10/13 06:42:23;;;;;;;18.08;10.93;;;5.20;99.90;;;;;;4983690;28;20117;-84
2021/10/13 06:44:49;;;;;;;22.77;11.93;;;5.30;99.90;;;;;;5003339;28;20034;-84
2021/10/13 06:47:14;;;;;;;24.90;14.75;;;5.40;99.90;;;;;;4993680;28;20030;-84
2021/10/13 06:49:40;;;;;;;22.88;10.48;;;5.40;99.90;;;;;;4993741;28;20116;-84
2021/10/13 06:52:05;;;;;;;22.13;12.13;;;5.50;99.90;;;;;;5006678;28;20461;-84
2021/10/13 06:54:31;;;;;;;16.17;11.35;;;5.60;99.90;;;;;;4986291;28;20029;-84
2021/10/13 06:56:56;;;;;;;25.50;12.50;;;5.60;99.90;;;;;;4965032;28;20049;-84
2021/10/13 06:59:22;;;;;;;20.65;10.70;;;5.70;99.90;;;;;;4967937;28;20035;-84
2021/10/13 07:01:48;;;;;;;24.73;12.48;;;5.70;99.90;;;;;;4982676;28;20026;-84
2021/10/13 07:04:14;;;;;;;30.02;13.70;;;5.70;99.90;;;;;;4963914;28;20041;-84
2021/10/13 07:06:39;;;;;;;28.77;14.88;;;5.80;99.90;;;;;;5002099;28;20390;-84
2021/10/13 07:09:05;;;;;;;15.80;8.52;;;5.90;99.90;;;;;;4985943;28;20437;-84
2021/10/13 07:11:30;;;;;;;19.38;10.82;;;5.90;99.90;;;;;;5005643;28;20068;-84
2021/10/13 07:13:56;;;;;;;17.52;9.07;;;6.00;99.90;;;;;;5003879;28;20031;-84
2021/10/13 07:16:21;;;;;;;15.32;7.28;;;6.00;99.90;;;;;;4988601;28;20045;-84
2021/10/13 07:18:47;;;;;;;16.63;9.18;;;6.00;99.90;;;;;;4989502;28;20076;-84
2021/10/13 07:21:12;;;;;;;16.05;8.27;;;6.10;99.90;;;;;;4994293;28;20019;-84
2021/10/13 07:23:38;;;;;;;17.02;9.68;;;6.20;99.90;;;;;;5005570;28;20083;-84
2021/10/13 07:26:03;;;;;;;21.13;10.25;;;6.20;99.90;;;;;;5004777;28;20045;-84
2021/10/13 07:28:30;;;;;;;15.60;10.20;;;6.30;99.90;;;;;;4954668;28;20027;-84
2021/10/13 07:30:55;;;;;;;15.60;8.70;;;6.30;99.90;;;;;;4985587;28;20022;-84
2021/10/13 07:33:21;;;;;;;20.85;8.70;;;6.40;99.90;;;;;;4959995;28;20027;-84
2021/10/13 07:35:47;;;;;;;18.50;9.60;;;6.50;99.90;;;;;;4980313;28;20034;-83
2021/10/13 07:38:12;;;;;;;17.33;9.35;;;6.50;99.90;;;;;;4955615;28;20495;-84
2021/10/13 07:40:38;;;;;;;17.60;9.77;;;6.60;99.90;;;;;;4981954;28;20092;-84
2021/10/13 07:43:04;;;;;;;22.02;13.35;;;6.70;99.90;;;;;;4968934;28;20035;-84
2021/10/13 07:45:29;;;;;;;22.60;13.50;;;6.70;99.90;;;;;;4965718;28;20052;-84
2021/10/13 07:47:55;;;;;;;22.30;12.80;;;6.80;99.90;;;;;;5000690;28;20034;-84
2021/10/13 07:50:21;;;;;;;21.02;11.35;;;6.80;99.90;;;;;;5002115;28;20026;-84
2021/10/13 07:52:46;;;;;;;19.65;10.27;;;6.90;99.90;;;;;;4982081;28;20109;-84
2021/10/13 07:55:12;;;;;;;21.75;11.93;;;7.00;99.90;;;;;;5002811;28;20038;-85
2021/10/13 07:57:37;;;;;;;22.77;13.35;;;7.00;99.90;;;;;;5002883;28;20397;-84
2021/10/13 08:00:04;;;;;;;19.52;13.23;;;7.00;99.90;;;;;;4969231;28;20440;-84
2021/10/13 08:02:30;;;;;;;23.95;14.80;;;7.00;99.90;;;;;;4983541;28;20027;-84
2021/10/13 08:04:56;;;;;;;19.48;12.00;;;7.10;99.90;;;;;;4953227;28;20047;-84
2021/10/13 08:07:21;;;;;;;17.13;11.82;;;7.20;99.90;;;;;;4966868;28;20041;-85
2021/10/13 08:09:47;;;;;;;19.15;12.02;;;7.20;99.90;;;;;;4963420;28;20027;-85
2021/10/13 08:12:12;;;;;;;16.35;11.88;;;7.20;99.90;;;;;;4990832;28;20041;-85
2021/10/13 08:14:38;;;;;;;21.05;12.50;;;7.30;99.90;;;;;;4966732;28;20042;-85
2021/10/13 08:17:03;;;;;;;18.83;11.45;;;7.30;99.90;;;;;;4997962;28;20106;-84
2021/10/13 08:19:29;;;;;;;25.58;17.67;;;7.40;99.90;;;;;;4970155;28;20065;-84
2021/10/13 08:21:54;;;;;;;25.80;13.45;;;7.50;99.90;;;;;;4998797;28;20038;-85
2021/10/13 08:24:20;;;;;;;20.00;12.45;;;7.60;99.90;;;;;;4975420;28;20034;-84
2021/10/13 08:26:46;;;;;;;23.35;13.60;;;7.60;99.90;;;;;;4993642;28;20400;-85
2021/10/13 08:29:11;;;;;;;25.63;12.95;;;7.70;99.90;;;;;;4998037;28;20042;-84
2021/10/13 08:31:37;;;;;;;32.88;17.88;;;7.80;99.90;;;;;;4996443;28;20382;-84
2021/10/13 08:34:02;;;;;;;21.33;12.98;;;7.80;99.90;;;;;;4973453;28;20080;-85
2021/10/13 08:36:28;;;;;;;21.02;14.68;;;8.00;99.90;;;;;;4973306;28;20080;-85
2021/10/13 08:38:54;;;;;;;23.75;14.52;;;8.10;99.90;;;;;;4985795;28;20030;-84
2021/10/13 08:41:19;;;;;;;19.83;12.45;;;8.20;99.90;;;;;;4970622;28;20026;-84
2021/10/13 08:43:45;;;;;;;25.00;16.40;;;8.10;99.90;;;;;;5002567;28;20034;-84
2021/10/13 08:46:11;;;;;;;23.35;14.70;;;8.40;99.90;;;;;;4951025;28;20026;-84
2021/10/13 08:48:37;;;;;;;31.23;19.45;;;8.40;99.90;;;;;;4975628;28;20034;-84
2021/10/13 08:51:03;;;;;;;30.55;17.88;;;8.60;99.90;;;;;;4979265;28;20030;-84
2021/10/13 08:53:28;;;;;;;25.85;17.75;;;8.60;99.90;;;;;;4980769;28;20027;-84
2021/10/13 08:55:55;;;;;;;32.22;16.00;;;8.60;99.90;;;;;;4984714;28;20106;-84
2021/10/13 08:58:22;;;;;;;24.15;16.33;;;8.70;99.90;;;;;;4982269;28;20040;-84
2021/10/13 09:00:49;;;;;;;24.10;16.10;;;8.70;99.90;;;;;;5003861;28;20031;-84
2021/10/13 09:03:27;;;;;;;37.83;21.13;;;8.70;99.90;;;;;;4981555;28;20046;-84
2021/10/13 09:05:52;;;;;;;23.17;14.48;;;8.70;99.90;;;;;;4985942;28;20034;-84
2021/10/13 09:08:18;;;;;;;20.50;13.50;;;8.70;99.90;;;;;;4956615;28;20099;-84
2021/10/13 09:10:43;;;;;;;20.20;14.60;;;8.80;99.90;;;;;;4969952;28;20058;-84
2021/10/13 09:13:14;;;;;;;22.45;14.00;;;8.90;99.90;;;;;;5002979;28;20026;-84
2021/10/13 09:15:42;;;;;;;29.73;15.93;;;9.00;99.90;;;;;;4999553;28;20068;-84
2021/10/13 09:18:08;;;;;;;21.92;14.88;;;9.10;99.90;;;;;;4989288;28;20169;-84
2021/10/13 09:20:36;;;;;;;20.10;13.18;;;9.20;99.90;;;;;;4992252;28;20077;-84
2021/10/13 09:23:08;;;;;;;18.05;12.55;;;9.40;99.90;;;;;;4999748;28;20092;-84
2021/10/13 09:25:35;;;;;;;24.17;15.70;;;9.40;99.90;;;;;;5017916;28;20084;-84
2021/10/13 09:28:01;;;;;;;20.17;13.23;;;9.60;99.90;;;;;;4973660;28;20547;-84
2021/10/13 09:30:39;;;;;;;25.70;14.70;;;9.90;99.90;;;;;;4995785;28;20038;-84
2021/10/13 09:33:15;;;;;;;28.95;16.92;;;10.00;99.90;;;;;;4985099;28;20502;-84
2021/10/13 09:35:51;;;;;;;26.42;17.60;;;10.00;99.90;;;;;;4968403;28;20525;-84
2021/10/13 09:38:22;;;;;;;27.42;15.38;;;10.00;99.90;;;;;;4990727;28;20169;-84
2021/10/13 09:40:48;;;;;;;18.20;12.02;;;10.40;99.90;;;;;;5015011;28;20117;-85
2021/10/13 09:43:32;;;;;;;17.15;12.32;;;10.40;99.90;;;;;;4972852;28;20113;-85
2021/10/13 09:46:09;;;;;;;17.17;11.68;;;10.60;99.90;;;;;;4998847;28;20490;-84
2021/10/13 09:48:39;;;;;;;19.45;11.52;;;10.70;99.90;;;;;;5005361;28;20026;-84
2021/10/13 09:51:17;;;;;;;19.90;12.80;;;11.00;99.90;;;;;;5001673;28;20034;-84
2021/10/13 09:53:43;;;;;;;18.30;10.77;;;11.60;99.90;;;;;;4997706;28;20034;-84
2021/10/13 09:56:31;;;;;;;16.27;10.05;;;11.40;99.90;;;;;;5004059;28;20121;-84
2021/10/13 09:59:09;;;;;;;17.30;10.40;;;11.60;99.90;;;;;;4986601;28;20322;-84
2021/10/13 10:01:35;;;;;;;16.90;11.15;;;11.90;99.90;;;;;;5005633;28;20137;-84
2021/10/13 10:04:00;;;;;;;17.60;11.32;;;12.40;99.90;;;;;;5002898;28;20109;-84
2021/10/13 10:06:27;;;;;;;15.88;10.45;;;12.50;99.90;;;;;;5002313;28;20089;-84
2021/10/13 10:09:03;;;;;;;22.48;10.63;;;13.10;99.90;;;;;;5003114;28;20037;-84
2021/10/13 10:11:33;;;;;;;17.75;10.68;;;13.00;99.90;;;;;;4991767;28;20511;-85
2021/10/13 10:13:59;;;;;;;25.77;10.80;;;13.40;99.90;;;;;;4952965;28;20030;-85
2021/10/13 10:16:29;;;;;;;16.45;9.80;;;13.30;99.90;;;;;;4985018;28;20056;-84
2021/10/13 10:19:17;;;;;;;15.65;9.90;;;13.20;99.90;;;;;;4972114;28;20035;-85
2021/10/13 10:21:59;;;;;;;19.45;9.27;;;13.00;99.90;;;;;;4989006;28;20062;-85
2021/10/13 10:24:24;;;;;;;22.77;9.32;;;13.10;99.90;;;;;;4987671;28;20512;-85
2021/10/13 10:26:50;;;;;;;15.77;8.02;;;13.30;99.90;;;;;;5019516;28;20096;-83
2021/10/13 10:29:16;;;;;;;19.88;8.30;;;13.90;99.90;;;;;;4987152;28;20109;-83
2021/10/13 10:31:55;;;;;;;18.83;9.85;;;13.70;99.90;;;;;;5000005;28;20531;-84
2021/10/13 10:34:22;;;;;;;17.40;10.15;;;13.80;99.90;;;;;;4988966;28;20508;-82
2021/10/13 10:36:48;;;;;;;20.70;10.00;;;14.20;99.90;;;;;;4986735;28;20395;-82
2021/10/13 10:39:15;;;;;;;20.58;11.65;;;14.00;99.90;;;;;;4979445;28;20034;-82
2021/10/13 10:41:54;;;;;;;21.50;9.60;;;14.60;99.90;;;;;;5000112;28;20034;-83
2021/10/13 10:44:39;;;;;;;18.52;10.00;;;14.40;99.90;;;;;;4981508;28;20129;-82
2021/10/13 10:47:09;;;;;;;16.00;8.95;;;14.40;99.90;;;;;;4995979;28;20040;-83
2021/10/13 10:49:43;;;;;;;14.95;7.38;;;14.60;99.90;;;;;;4988813;28;20027;-85
2021/10/13 10:52:09;;;;;;;21.88;9.75;;;15.20;99.90;;;;;;5016809;28;20493;-83
2021/10/13 10:54:35;;;;;;;19.70;10.60;;;14.90;99.90;;;;;;5005956;28;20120;-83
2021/10/13 10:57:00;;;;;;;25.55;9.52;;;14.90;99.90;;;;;;5020201;28;20039;-83
2021/10/13 10:59:38;;;;;;;25.13;10.88;;;14.50;99.90;;;;;;4970342;28;20463;-84
2021/10/13 11:02:12;;;;;;;18.90;9.07;;;14.70;99.90;;;;;;4991750;28;20509;-84
2021/10/13 11:04:40;;;;;;;18.05;9.40;;;15.40;99.90;;;;;;4986859;28;20495;-84
2021/10/13 11:07:06;;;;;;;17.17;9.25;;;15.90;99.90;;;;;;4991431;28;20320;-84
2021/10/13 11:09:31;;;;;;;15.25;11.00;;;15.80;99.90;;;;;;5005883;28;20037;-84
2021/10/13 11:11:57;;;;;;;19.00;11.15;;;16.00;99.90;;;;;;4989586;28;20031;-85
2021/10/13 11:14:24;;;;;;;11.52;7.15;;;16.20;99.90;;;;;;4977737;28;20030;-84
2021/10/13 11:16:57;;;;;;;16.58;9.25;;;16.50;99.90;;;;;;4988073;28;20494;-84
2021/10/13 11:19:26;;;;;;;15.18;10.50;;;17.00;99.90;;;;;;4981801;28;20053;-85
2021/10/13 11:21:59;;;;;;;21.55;9.98;;;17.70;99.80;;;;;;4972894;28;20038;-85
2021/10/13 11:24:24;;;;;;;13.30;9.93;;;18.10;97.70;;;;;;4991575;28;20035;-85
2021/10/13 11:26:50;;;;;;;16.38;9.68;;;17.70;99.90;;;;;;4972137;28;20080;-85
2021/10/13 11:29:23;;;;;;;13.32;8.38;;;17.30;99.90;;;;;;5016388;28;20058;-85
2021/10/13 11:31:49;;;;;;;16.33;9.18;;;16.80;99.90;;;;;;4954206;28;20034;-85
2021/10/13 11:34:17;;;;;;;15.35;8.05;;;17.10;99.90;;;;;;4968342;28;20042;-85
2021/10/13 11:36:48;;;;;;;14.75;8.45;;;17.30;99.90;;;;;;4981572;28;20037;-85
2021/10/13 11:39:19;;;;;;;12.05;9.15;;;17.10;99.90;;;;;;4980155;28;20043;-85
2021/10/13 11:41:44;;;;;;;12.43;8.20;;;16.70;99.90;;;;;;4965064;28;20050;-85
2021/10/13 11:44:10;;;;;;;15.02;8.40;;;16.90;99.90;;;;;;4982611;28;20112;-85
2021/10/13 11:46:35;;;;;;;16.25;8.20;;;17.00;99.90;;;;;;4958593;28;20037;-86
2021/10/13 11:49:04;;;;;;;11.65;7.55;;;17.00;99.10;;;;;;4952351;28;20034;-85
2021/10/13 11:51:30;;;;;;;13.85;9.27;;;17.10;99.90;;;;;;4939460;28;20070;-85
2021/10/13 11:53:55;;;;;;;16.00;8.38;;;17.10;99.90;;;;;;4967247;28;20115;-86
2021/10/13 11:56:21;;;;;;;22.45;9.95;;;16.70;99.90;;;;;;4994949;28;20036;-86
2021/10/13 11:58:47;;;;;;;14.10;7.90;;;16.80;99.90;;;;;;4973468;28;20042;-86
2021/10/13 12:01:14;;;;;;;13.73;7.90;;;17.10;99.70;;;;;;4958761;28;20084;-86
2021/10/13 12:03:40;;;;;;;17.83;7.63;;;17.10;98.40;;;;;;4960150;28;20042;-86
2021/10/13 12:06:05;;;;;;;13.10;6.05;;;17.20;98.30;;;;;;4954271;28;20046;-86
2021/10/13 12:08:35;;;;;;;9.02;5.72;;;17.00;97.10;;;;;;4967809;28;20130;-85
2021/10/13 12:11:08;;;;;;;9.88;5.30;;;16.90;97.70;;;;;;4978116;28;20486;-86
2021/10/13 12:13:44;;;;;;;13.13;5.53;;;17.00;97.10;;;;;;4956276;28;20670;-85
2021/10/13 12:16:11;;;;;;;8.38;4.65;;;16.70;97.40;;;;;;4966181;28;20446;-85
2021/10/13 12:18:40;;;;;;;11.48;4.25;;;16.50;97.80;;;;;;4964717;28;20487;-86
2021/10/13 12:21:13;;;;;;;7.35;4.30;;;16.40;96.20;;;;;;4997275;28;20042;-85
2021/10/13 12:23:46;;;;;;;9.02;4.25;;;16.20;96.40;;;;;;4992216;28;20532;-85
2021/10/13 12:26:19;;;;;;;8.27;3.72;;;16.10;96.20;;;;;;4973796;28;20510;-86
2021/10/13 12:28:45;;;;;;;6.57;3.60;;;16.00;97.10;;;;;;5002771;28;20037;-85
2021/10/13 12:31:13;;;;;;;6.28;4.03;;;16.00;97.90;;;;;;5021802;28;20490;-85
2021/10/13 12:33:50;;;;;;;10.18;3.38;;;15.70;96.60;;;;;;4985138;28;20034;-86
2021/10/13 12:36:22;;;;;;;7.82;2.72;;;15.70;96.90;;;;;;4984937;28;20121;-85
2021/10/13 12:38:52;;;;;;;10.95;2.70;;;15.60;97.50;;;;;;4973619;28;20030;-86
2021/10/13 12:41:18;;;;;;;15.25;2.78;;;15.50;98.60;;;;;;5004173;28;20053;-86
2021/10/13 12:43:48;;;;;;;10.57;3.22;;;15.40;99.90;;;;;;4992269;28;20030;-86
2021/10/13 12:46:31;;;;;;;8.43;3.15;;;15.40;99.90;;;;;;4991066;28;20033;-86